sensor_id;sensor_type;location;lat;lon;timestamp;pressure;altitude;pressure_sealevel;temperature;humidity
13695;BME280;6919;52.344;14.518;2022-09-09T00:00:26;100244.47;;;17.46;100.00
13695;BME280;6919;52.344;14.518;2022-09-09T00:03:05;100249.63;;;17.34;100.00
13695;BME280;6919;52.344;14.518;2022-09-09T00:05:51;100246.28;;;17.19;100.00
13695;BME280;6919;52.344;14.518;2022-09-09T00:08:37;100250.03;;;17.18;100.00
13695;BME280;6919;52.344;14.518;2022-09-09T00:11:19;100243.75;;;17.18;100.00
13695;BME280;6919;52.344;14.518;2022-09-09T00:14:00;100251.69;;;17.13;100.00
13695;BME280;6919;52.344;14.518;2022-09-09T00:16:36;100246.72;;;17.29;100.00
13695;BME280;6919;52.344;14.518;2022-09-09T00:19:14;100245.66;;;17.17;100.00
13695;BME280;6919;52.344;14.518;2022-09-09T00:22:03;100258.13;;;17.12;100.00
13695;BME280;6919;52.344;14.518;2022-09-09T00:24:42;100248.94;;;17.06;100.00
13695;BME280;6919;52.344;14.518;2022-09-09T00:27:23;100260.00;;;17.05;100.00
13695;BME280;6919;52.344;14.518;2022-09-09T00:30:11;100247.94;;;17.07;100.00
13695;BME280;6919;52.344;14.518;2022-09-09T00:32:42;100255.00;;;17.15;100.00
13695;BME280;6919;52.344;14.518;2022-09-09T00:35:21;100252.94;;;17.10;100.00
13695;BME280;6919;52.344;14.518;2022-09-09T00:37:56;100261.47;;;17.07;100.00
13695;BME280;6919;52.344;14.518;2022-09-09T00:40:32;100255.34;;;16.92;100.00
13695;BME280;6919;52.344;14.518;2022-09-09T00:43:27;100258.31;;;17.04;100.00
13695;BME280;6919;52.344;14.518;2022-09-09T00:46:41;100262.94;;;17.16;100.00
13695;BME280;6919;52.344;14.518;2022-09-09T00:49:33;100263.13;;;17.08;100.00
13695;BME280;6919;52.344;14.518;2022-09-09T00:52:21;100265.22;;;17.13;100.00
13695;BME280;6919;52.344;14.518;2022-09-09T00:55:04;100272.53;;;17.12;100.00
13695;BME280;6919;52.344;14.518;2022-09-09T00:57:35;100259.56;;;17.08;100.00
13695;BME280;6919;52.344;14.518;2022-09-09T01:00:22;100264.06;;;16.81;100.00
13695;BME280;6919;52.344;14.518;2022-09-09T01:06:11;100259.44;;;16.69;100.00
13695;BME280;6919;52.344;14.518;2022-09-09T01:09:05;100264.66;;;16.70;100.00
13695;BME280;6919;52.344;14.518;2022-09-09T01:11:49;100261.34;;;16.81;100.00
13695;BME280;6919;52.344;14.518;2022-09-09T01:14:40;100256.41;;;16.91;100.00
13695;BME280;6919;52.344;14.518;2022-09-09T01:17:16;100258.25;;;16.84;100.00
13695;BME280;6919;52.344;14.518;2022-09-09T01:20:02;100256.97;;;16.74;100.00
13695;BME280;6919;52.344;14.518;2022-09-09T01:22:39;100262.34;;;16.67;100.00
13695;BME280;6919;52.344;14.518;2022-09-09T01:26:03;100261.59;;;16.86;100.00
13695;BME280;6919;52.344;14.518;2022-09-09T01:28:36;100256.84;;;17.01;100.00
13695;BME280;6919;52.344;14.518;2022-09-09T01:31:07;100259.97;;;16.98;100.00
13695;BME280;6919;52.344;14.518;2022-09-09T01:33:37;100250.53;;;16.81;100.00
13695;BME280;6919;52.344;14.518;2022-09-09T01:36:12;100261.16;;;16.76;100.00
13695;BME280;6919;52.344;14.518;2022-09-09T01:38:42;100250.25;;;16.63;100.00
13695;BME280;6919;52.344;14.518;2022-09-09T01:41:11;100255.72;;;16.76;100.00
13695;BME280;6919;52.344;14.518;2022-09-09T01:43:40;100250.72;;;16.73;100.00
13695;BME280;6919;52.344;14.518;2022-09-09T01:46:09;100251.19;;;16.90;100.00
13695;BME280;6919;52.344;14.518;2022-09-09T01:48:40;100252.44;;;16.87;100.00
13695;BME280;6919;52.344;14.518;2022-09-09T01:51:09;100240.34;;;16.90;100.00
13695;BME280;6919;52.344;14.518;2022-09-09T01:53:43;100244.69;;;16.78;100.00
13695;BME280;6919;52.344;14.518;2022-09-09T01:56:29;100252.94;;;16.57;100.00
13695;BME280;6919;52.344;14.518;2022-09-09T01:59:20;100250.25;;;16.63;100.00
13695;BME280;6919;52.344;14.518;2022-09-09T02:02:08;100252.81;;;16.71;100.00
13695;BME280;6919;52.344;14.518;2022-09-09T02:04:40;100254.78;;;16.56;100.00
13695;BME280;6919;52.344;14.518;2022-09-09T02:07:30;100255.13;;;16.40;100.00
13695;BME280;6919;52.344;14.518;2022-09-09T02:10:10;100246.94;;;16.61;100.00
13695;BME280;6919;52.344;14.518;2022-09-09T02:12:46;100249.84;;;16.66;100.00
13695;BME280;6919;52.344;14.518;2022-09-09T02:15:24;100260.59;;;16.53;100.00
13695;BME280;6919;52.344;14.518;2022-09-09T02:17:57;100257.91;;;16.53;100.00
13695;BME280;6919;52.344;14.518;2022-09-09T02:20:27;100258.63;;;16.41;100.00
13695;BME280;6919;52.344;14.518;2022-09-09T02:23:01;100260.66;;;16.32;100.00
13695;BME280;6919;52.344;14.518;2022-09-09T02:25:30;100262.56;;;16.32;100.00
13695;BME280;6919;52.344;14.518;2022-09-09T02:28:01;100270.09;;;16.36;100.00
13695;BME280;6919;52.344;14.518;2022-09-09T02:30:33;100264.81;;;16.28;100.00
13695;BME280;6919;52.344;14.518;2022-09-09T02:33:07;100272.13;;;16.34;100.00
13695;BME280;6919;52.344;14.518;2022-09-09T02:35:38;100264.69;;;16.36;100.00
13695;BME280;6919;52.344;14.518;2022-09-09T02:38:14;100266.94;;;16.39;100.00
13695;BME280;6919;52.344;14.518;2022-09-09T02:40:44;100265.09;;;16.40;100.00
13695;BME280;6919;52.344;14.518;2022-09-09T02:43:15;100267.91;;;16.25;100.00
13695;BME280;6919;52.344;14.518;2022-09-09T02:45:53;100260.78;;;16.11;100.00
13695;BME280;6919;52.344;14.518;2022-09-09T02:48:31;100269.91;;;16.10;100.00
13695;BME280;6919;52.344;14.518;2022-09-09T02:51:08;100272.59;;;16.10;100.00
13695;BME280;6919;52.344;14.518;2022-09-09T02:54:04;100266.75;;;16.07;100.00
13695;BME280;6919;52.344;14.518;2022-09-09T02:56:42;100273.00;;;16.07;100.00
13695;BME280;6919;52.344;14.518;2022-09-09T02:59:15;100277.13;;;16.03;100.00
13695;BME280;6919;52.344;14.518;2022-09-09T03:01:43;100277.66;;;15.92;100.00
13695;BME280;6919;52.344;14.518;2022-09-09T03:04:11;100283.63;;;16.09;100.00
13695;BME280;6919;52.344;14.518;2022-09-09T03:06:40;100284.66;;;16.08;100.00
13695;BME280;6919;52.344;14.518;2022-09-09T03:09:08;100283.19;;;16.05;100.00
13695;BME280;6919;52.344;14.518;2022-09-09T03:11:37;100279.84;;;16.03;100.00
13695;BME280;6919;52.344;14.518;2022-09-09T03:14:06;100278.06;;;16.17;100.00
13695;BME280;6919;52.344;14.518;2022-09-09T03:16:35;100283.50;;;16.17;100.00
13695;BME280;6919;52.344;14.518;2022-09-09T03:19:03;100279.28;;;16.14;100.00
13695;BME280;6919;52.344;14.518;2022-09-09T03:21:33;100283.78;;;16.01;100.00
13695;BME280;6919;52.344;14.518;2022-09-09T03:24:01;100291.91;;;16.07;100.00
13695;BME280;6919;52.344;14.518;2022-09-09T03:26:30;100297.34;;;16.07;100.00
13695;BME280;6919;52.344;14.518;2022-09-09T03:28:58;100296.25;;;16.29;100.00
13695;BME280;6919;52.344;14.518;2022-09-09T03:31:27;100293.00;;;16.13;100.00
13695;BME280;6919;52.344;14.518;2022-09-09T03:33:58;100288.16;;;16.29;100.00
13695;BME280;6919;52.344;14.518;2022-09-09T03:36:27;100293.22;;;16.11;100.00
13695;BME280;6919;52.344;14.518;2022-09-09T03:38:55;100298.91;;;15.95;100.00
13695;BME280;6919;52.344;14.518;2022-09-09T03:41:24;100306.88;;;16.03;100.00
13695;BME280;6919;52.344;14.518;2022-09-09T03:43:53;100306.06;;;16.03;100.00
13695;BME280;6919;52.344;14.518;2022-09-09T03:46:24;100298.53;;;15.98;100.00
13695;BME280;6919;52.344;14.518;2022-09-09T03:48:53;100296.53;;;16.07;100.00
13695;BME280;6919;52.344;14.518;2022-09-09T03:51:22;100291.53;;;16.10;100.00
13695;BME280;6919;52.344;14.518;2022-09-09T03:53:51;100291.41;;;16.18;100.00
13695;BME280;6919;52.344;14.518;2022-09-09T03:56:24;100292.41;;;16.17;100.00
13695;BME280;6919;52.344;14.518;2022-09-09T03:58:52;100290.28;;;16.13;100.00
13695;BME280;6919;52.344;14.518;2022-09-09T04:01:21;100285.91;;;16.05;100.00
13695;BME280;6919;52.344;14.518;2022-09-09T04:03:49;100292.03;;;16.20;100.00
13695;BME280;6919;52.344;14.518;2022-09-09T04:06:17;100300.34;;;16.19;100.00
13695;BME280;6919;52.344;14.518;2022-09-09T04:08:48;100298.88;;;16.16;100.00
13695;BME280;6919;52.344;14.518;2022-09-09T04:11:16;100295.09;;;16.11;100.00
13695;BME280;6919;52.344;14.518;2022-09-09T04:13:45;100282.84;;;16.15;100.00
13695;BME280;6919;52.344;14.518;2022-09-09T04:16:13;100285.50;;;16.08;100.00
13695;BME280;6919;52.344;14.518;2022-09-09T04:18:42;100286.88;;;15.98;100.00
13695;BME280;6919;52.344;14.518;2022-09-09T04:21:10;100287.91;;;15.97;100.00
13695;BME280;6919;52.344;14.518;2022-09-09T04:23:39;100295.81;;;15.71;100.00
13695;BME280;6919;52.344;14.518;2022-09-09T04:26:09;100298.69;;;15.69;100.00
13695;BME280;6919;52.344;14.518;2022-09-09T04:28:37;100305.91;;;15.62;100.00
13695;BME280;6919;52.344;14.518;2022-09-09T04:31:08;100297.81;;;15.62;100.00
13695;BME280;6919;52.344;14.518;2022-09-09T04:33:36;100298.69;;;15.69;100.00
13695;BME280;6919;52.344;14.518;2022-09-09T04:36:07;100300.13;;;15.65;100.00
13695;BME280;6919;52.344;14.518;2022-09-09T04:38:36;100304.16;;;15.76;100.00
13695;BME280;6919;52.344;14.518;2022-09-09T04:41:05;100293.44;;;16.10;100.00
13695;BME280;6919;52.344;14.518;2022-09-09T04:43:35;100290.66;;;16.03;100.00
13695;BME280;6919;52.344;14.518;2022-09-09T04:46:05;100302.28;;;15.97;100.00
13695;BME280;6919;52.344;14.518;2022-09-09T04:48:33;100311.53;;;15.88;100.00
13695;BME280;6919;52.344;14.518;2022-09-09T04:51:04;100307.03;;;15.95;100.00
13695;BME280;6919;52.344;14.518;2022-09-09T04:53:33;100313.16;;;16.10;100.00
13695;BME280;6919;52.344;14.518;2022-09-09T04:56:03;100308.56;;;16.04;100.00
13695;BME280;6919;52.344;14.518;2022-09-09T04:58:32;100309.78;;;16.02;100.00
13695;BME280;6919;52.344;14.518;2022-09-09T05:01:07;100318.03;;;15.94;100.00
13695;BME280;6919;52.344;14.518;2022-09-09T05:03:35;100318.44;;;15.91;100.00
13695;BME280;6919;52.344;14.518;2022-09-09T05:06:06;100327.13;;;15.86;100.00
13695;BME280;6919;52.344;14.518;2022-09-09T05:08:36;100327.25;;;15.99;100.00
13695;BME280;6919;52.344;14.518;2022-09-09T05:11:13;100318.75;;;15.81;100.00
13695;BME280;6919;52.344;14.518;2022-09-09T05:13:42;100327.38;;;15.91;100.00
13695;BME280;6919;52.344;14.518;2022-09-09T05:16:13;100325.47;;;16.13;100.00
13695;BME280;6919;52.344;14.518;2022-09-09T05:18:42;100321.16;;;16.18;100.00
13695;BME280;6919;52.344;14.518;2022-09-09T05:21:11;100324.69;;;16.19;100.00
13695;BME280;6919;52.344;14.518;2022-09-09T05:23:40;100337.31;;;16.12;100.00
13695;BME280;6919;52.344;14.518;2022-09-09T05:26:13;100332.25;;;16.30;100.00
13695;BME280;6919;52.344;14.518;2022-09-09T05:28:44;100332.84;;;16.25;100.00
13695;BME280;6919;52.344;14.518;2022-09-09T05:31:16;100328.34;;;16.60;100.00
13695;BME280;6919;52.344;14.518;2022-09-09T05:33:46;100325.94;;;16.44;100.00
13695;BME280;6919;52.344;14.518;2022-09-09T05:36:18;100335.84;;;16.37;100.00
13695;BME280;6919;52.344;14.518;2022-09-09T05:38:47;100333.28;;;16.29;100.00
13695;BME280;6919;52.344;14.518;2022-09-09T05:41:16;100341.38;;;16.22;100.00
13695;BME280;6919;52.344;14.518;2022-09-09T05:43:45;100337.97;;;16.41;100.00
13695;BME280;6919;52.344;14.518;2022-09-09T05:46:19;100346.00;;;16.56;100.00
13695;BME280;6919;52.344;14.518;2022-09-09T05:48:50;100340.94;;;16.80;100.00
13695;BME280;6919;52.344;14.518;2022-09-09T05:51:20;100335.41;;;16.95;100.00
13695;BME280;6919;52.344;14.518;2022-09-09T05:53:49;100326.25;;;17.02;100.00
13695;BME280;6919;52.344;14.518;2022-09-09T05:56:21;100331.53;;;17.17;100.00
13695;BME280;6919;52.344;14.518;2022-09-09T05:58:51;100330.88;;;17.08;100.00
13695;BME280;6919;52.344;14.518;2022-09-09T06:01:24;100338.00;;;17.16;100.00
13695;BME280;6919;52.344;14.518;2022-09-09T06:03:54;100332.63;;;17.35;100.00
13695;BME280;6919;52.344;14.518;2022-09-09T06:06:24;100337.50;;;17.53;100.00
13695;BME280;6919;52.344;14.518;2022-09-09T06:08:56;100333.44;;;17.29;100.00
13695;BME280;6919;52.344;14.518;2022-09-09T06:11:28;100340.13;;;17.40;100.00
13695;BME280;6919;52.344;14.518;2022-09-09T06:13:58;100337.28;;;17.48;100.00
13695;BME280;6919;52.344;14.518;2022-09-09T06:16:30;100339.84;;;17.76;100.00
13695;BME280;6919;52.344;14.518;2022-09-09T06:19:00;100340.84;;;17.68;100.00
13695;BME280;6919;52.344;14.518;2022-09-09T06:21:32;100334.63;;;17.87;100.00
13695;BME280;6919;52.344;14.518;2022-09-09T06:24:01;100335.69;;;17.93;100.00
13695;BME280;6919;52.344;14.518;2022-09-09T06:26:31;100330.66;;;17.96;100.00
13695;BME280;6919;52.344;14.518;2022-09-09T06:29:01;100330.03;;;17.88;100.00
13695;BME280;6919;52.344;14.518;2022-09-09T06:31:34;100326.25;;;17.82;100.00
13695;BME280;6919;52.344;14.518;2022-09-09T06:34:06;100327.97;;;18.03;100.00
13695;BME280;6919;52.344;14.518;2022-09-09T06:36:37;100334.84;;;18.25;100.00
13695;BME280;6919;52.344;14.518;2022-09-09T06:39:07;100331.91;;;18.20;100.00
13695;BME280;6919;52.344;14.518;2022-09-09T06:41:41;100338.59;;;18.37;100.00
13695;BME280;6919;52.344;14.518;2022-09-09T06:44:09;100341.31;;;18.50;100.00
13695;BME280;6919;52.344;14.518;2022-09-09T06:46:40;100350.50;;;18.10;100.00
13695;BME280;6919;52.344;14.518;2022-09-09T06:49:08;100352.56;;;18.66;100.00
13695;BME280;6919;52.344;14.518;2022-09-09T06:51:37;100345.81;;;18.88;100.00
13695;BME280;6919;52.344;14.518;2022-09-09T06:54:34;100345.28;;;18.41;100.00
13695;BME280;6919;52.344;14.518;2022-09-09T06:57:04;100346.75;;;18.43;100.00
13695;BME280;6919;52.344;14.518;2022-09-09T06:59:55;100347.34;;;18.26;100.00
13695;BME280;6919;52.344;14.518;2022-09-09T07:02:50;100354.47;;;18.20;100.00
13695;BME280;6919;52.344;14.518;2022-09-09T07:05:39;100349.47;;;18.37;100.00
13695;BME280;6919;52.344;14.518;2022-09-09T07:08:07;100358.00;;;18.34;100.00
13695;BME280;6919;52.344;14.518;2022-09-09T07:10:35;100358.66;;;18.36;100.00
13695;BME280;6919;52.344;14.518;2022-09-09T07:13:03;100358.84;;;18.28;100.00
13695;BME280;6919;52.344;14.518;2022-09-09T07:15:31;100358.41;;;18.24;100.00
13695;BME280;6919;52.344;14.518;2022-09-09T07:18:02;100356.97;;;18.48;100.00
13695;BME280;6919;52.344;14.518;2022-09-09T07:20:30;100352.75;;;18.78;100.00
13695;BME280;6919;52.344;14.518;2022-09-09T07:22:58;100352.59;;;19.17;100.00
13695;BME280;6919;52.344;14.518;2022-09-09T07:25:26;100362.69;;;19.10;100.00
13695;BME280;6919;52.344;14.518;2022-09-09T07:27:56;100359.09;;;19.09;100.00
13695;BME280;6919;52.344;14.518;2022-09-09T07:30:24;100353.22;;;19.25;100.00
13695;BME280;6919;52.344;14.518;2022-09-09T07:32:53;100357.56;;;19.33;100.00
13695;BME280;6919;52.344;14.518;2022-09-09T07:35:25;100358.38;;;19.40;100.00
13695;BME280;6919;52.344;14.518;2022-09-09T07:37:53;100359.53;;;19.57;100.00
13695;BME280;6919;52.344;14.518;2022-09-09T07:40:22;100363.31;;;19.56;100.00
13695;BME280;6919;52.344;14.518;2022-09-09T07:42:50;100362.78;;;19.34;100.00
13695;BME280;6919;52.344;14.518;2022-09-09T07:45:18;100366.41;;;19.28;100.00
13695;BME280;6919;52.344;14.518;2022-09-09T07:47:46;100367.53;;;19.52;100.00
13695;BME280;6919;52.344;14.518;2022-09-09T07:50:15;100360.56;;;19.93;100.00
13695;BME280;6919;52.344;14.518;2022-09-09T07:52:44;100367.44;;;20.27;100.00
13695;BME280;6919;52.344;14.518;2022-09-09T07:55:12;100363.56;;;19.85;100.00
13695;BME280;6919;52.344;14.518;2022-09-09T07:57:42;100364.69;;;19.71;100.00
13695;BME280;6919;52.344;14.518;2022-09-09T08:00:13;100369.56;;;19.63;100.00
13695;BME280;6919;52.344;14.518;2022-09-09T08:02:42;100373.94;;;19.95;100.00
13695;BME280;6919;52.344;14.518;2022-09-09T08:05:10;100373.25;;;19.75;100.00
13695;BME280;6919;52.344;14.518;2022-09-09T08:07:39;100366.66;;;19.58;100.00
13695;BME280;6919;52.344;14.518;2022-09-09T08:10:09;100375.94;;;19.81;100.00
13695;BME280;6919;52.344;14.518;2022-09-09T08:12:37;100371.81;;;20.03;100.00
13695;BME280;6919;52.344;14.518;2022-09-09T08:15:13;100378.56;;;19.94;100.00
13695;BME280;6919;52.344;14.518;2022-09-09T08:17:41;100377.19;;;20.10;100.00
13695;BME280;6919;52.344;14.518;2022-09-09T08:20:10;100382.84;;;20.64;100.00
13695;BME280;6919;52.344;14.518;2022-09-09T08:22:38;100377.84;;;20.79;100.00
13695;BME280;6919;52.344;14.518;2022-09-09T08:25:08;100383.19;;;20.50;100.00
13695;BME280;6919;52.344;14.518;2022-09-09T08:27:37;100383.88;;;20.63;100.00
13695;BME280;6919;52.344;14.518;2022-09-09T08:30:06;100382.72;;;20.53;100.00
13695;BME280;6919;52.344;14.518;2022-09-09T08:32:34;100390.38;;;20.62;100.00
13695;BME280;6919;52.344;14.518;2022-09-09T08:35:06;100393.53;;;20.84;100.00
13695;BME280;6919;52.344;14.518;2022-09-09T08:37:34;100395.03;;;21.04;100.00
13695;BME280;6919;52.344;14.518;2022-09-09T08:40:03;100394.06;;;20.92;100.00
13695;BME280;6919;52.344;14.518;2022-09-09T08:42:47;100387.97;;;21.15;100.00
13695;BME280;6919;52.344;14.518;2022-09-09T08:45:34;100392.44;;;21.09;100.00
13695;BME280;6919;52.344;14.518;2022-09-09T08:48:21;100391.41;;;20.86;100.00
13695;BME280;6919;52.344;14.518;2022-09-09T08:50:52;100400.69;;;21.03;100.00
13695;BME280;6919;52.344;14.518;2022-09-09T08:53:36;100397.44;;;21.12;100.00
13695;BME280;6919;52.344;14.518;2022-09-09T08:56:12;100399.56;;;21.10;100.00
13695;BME280;6919;52.344;14.518;2022-09-09T08:58:47;100407.13;;;21.26;100.00
13695;BME280;6919;52.344;14.518;2022-09-09T09:01:38;100403.19;;;21.40;100.00
13695;BME280;6919;52.344;14.518;2022-09-09T09:04:30;100409.38;;;21.47;100.00
13695;BME280;6919;52.344;14.518;2022-09-09T09:07:15;100399.69;;;21.51;100.00
13695;BME280;6919;52.344;14.518;2022-09-09T09:09:57;100387.84;;;21.57;100.00
13695;BME280;6919;52.344;14.518;2022-09-09T09:12:44;100393.06;;;21.11;100.00
13695;BME280;6919;52.344;14.518;2022-09-09T09:15:21;100387.56;;;21.47;100.00
13695;BME280;6919;52.344;14.518;2022-09-09T09:17:54;100396.75;;;21.17;100.00
13695;BME280;6919;52.344;14.518;2022-09-09T09:20:33;100394.41;;;21.02;100.00
13695;BME280;6919;52.344;14.518;2022-09-09T09:23:06;100404.09;;;21.34;100.00
13695;BME280;6919;52.344;14.518;2022-09-09T09:25:40;100395.41;;;21.73;100.00
13695;BME280;6919;52.344;14.518;2022-09-09T09:28:16;100396.25;;;21.74;100.00
13695;BME280;6919;52.344;14.518;2022-09-09T09:30:52;100402.31;;;22.17;100.00
13695;BME280;6919;52.344;14.518;2022-09-09T09:33:26;100404.13;;;22.23;100.00
13695;BME280;6919;52.344;14.518;2022-09-09T09:35:56;100391.16;;;22.18;100.00
13695;BME280;6919;52.344;14.518;2022-09-09T09:38:28;100392.88;;;22.42;100.00
13695;BME280;6919;52.344;14.518;2022-09-09T09:41:16;100399.84;;;21.56;100.00
13695;BME280;6919;52.344;14.518;2022-09-09T09:43:54;100392.03;;;22.30;100.00
13695;BME280;6919;52.344;14.518;2022-09-09T09:46:25;100395.88;;;22.87;100.00
13695;BME280;6919;52.344;14.518;2022-09-09T09:48:58;100392.06;;;23.23;100.00
13695;BME280;6919;52.344;14.518;2022-09-09T09:51:28;100391.59;;;23.03;100.00
13695;BME280;6919;52.344;14.518;2022-09-09T09:54:17;100391.44;;;23.21;100.00
13695;BME280;6919;52.344;14.518;2022-09-09T09:56:49;100388.38;;;23.57;100.00
13695;BME280;6919;52.344;14.518;2022-09-09T09:59:34;100400.03;;;23.64;100.00
13695;BME280;6919;52.344;14.518;2022-09-09T10:02:19;100387.88;;;23.32;100.00
13695;BME280;6919;52.344;14.518;2022-09-09T10:05:02;100389.69;;;23.03;100.00
13695;BME280;6919;52.344;14.518;2022-09-09T10:07:31;100393.03;;;22.82;100.00
13695;BME280;6919;52.344;14.518;2022-09-09T10:10:00;100383.28;;;22.98;100.00
13695;BME280;6919;52.344;14.518;2022-09-09T10:12:46;100393.84;;;22.82;100.00
13695;BME280;6919;52.344;14.518;2022-09-09T10:15:36;100388.03;;;22.79;100.00
13695;BME280;6919;52.344;14.518;2022-09-09T10:18:25;100388.25;;;22.43;100.00
13695;BME280;6919;52.344;14.518;2022-09-09T10:21:09;100388.88;;;22.04;100.00
13695;BME280;6919;52.344;14.518;2022-09-09T10:24:07;100399.59;;;22.69;100.00
13695;BME280;6919;52.344;14.518;2022-09-09T10:26:47;100388.88;;;22.91;100.00
13695;BME280;6919;52.344;14.518;2022-09-09T10:29:48;100398.50;;;22.82;100.00
13695;BME280;6919;52.344;14.518;2022-09-09T10:32:37;100396.00;;;22.57;100.00
13695;BME280;6919;52.344;14.518;2022-09-09T10:35:19;100403.75;;;22.83;100.00
13695;BME280;6919;52.344;14.518;2022-09-09T10:38:12;100399.44;;;22.64;100.00
13695;BME280;6919;52.344;14.518;2022-09-09T10:41:09;100398.16;;;23.02;100.00
13695;BME280;6919;52.344;14.518;2022-09-09T10:47:40;100403.25;;;23.61;100.00
13695;BME280;6919;52.344;14.518;2022-09-09T10:50:40;100395.25;;;23.20;100.00
13695;BME280;6919;52.344;14.518;2022-09-09T10:53:43;100394.41;;;23.42;100.00
13695;BME280;6919;52.344;14.518;2022-09-09T10:56:18;100397.28;;;23.64;100.00
13695;BME280;6919;52.344;14.518;2022-09-09T10:58:52;100396.41;;;23.75;100.00
13695;BME280;6919;52.344;14.518;2022-09-09T11:01:26;100396.03;;;23.83;100.00
13695;BME280;6919;52.344;14.518;2022-09-09T11:04:01;100400.88;;;23.64;100.00
13695;BME280;6919;52.344;14.518;2022-09-09T11:06:40;100398.56;;;23.45;100.00
13695;BME280;6919;52.344;14.518;2022-09-09T11:09:16;100396.66;;;23.73;100.00
13695;BME280;6919;52.344;14.518;2022-09-09T11:11:52;100404.69;;;23.91;100.00
13695;BME280;6919;52.344;14.518;2022-09-09T11:14:29;100400.72;;;23.99;100.00
13695;BME280;6919;52.344;14.518;2022-09-09T11:17:09;100400.13;;;23.41;100.00
13695;BME280;6919;52.344;14.518;2022-09-09T11:19:41;100393.41;;;23.76;100.00
13695;BME280;6919;52.344;14.518;2022-09-09T11:22:20;100400.81;;;23.76;100.00
13695;BME280;6919;52.344;14.518;2022-09-09T11:24:57;100405.88;;;23.56;100.00
13695;BME280;6919;52.344;14.518;2022-09-09T11:27:36;100402.56;;;23.82;100.00
13695;BME280;6919;52.344;14.518;2022-09-09T11:30:19;100397.50;;;24.02;100.00
13695;BME280;6919;52.344;14.518;2022-09-09T11:33:37;100392.28;;;23.89;100.00
13695;BME280;6919;52.344;14.518;2022-09-09T11:40:03;100392.16;;;24.23;100.00
13695;BME280;6919;52.344;14.518;2022-09-09T11:42:35;100391.06;;;24.41;100.00
13695;BME280;6919;52.344;14.518;2022-09-09T11:45:23;100391.41;;;23.72;100.00
13695;BME280;6919;52.344;14.518;2022-09-09T11:47:54;100396.91;;;24.00;100.00
13695;BME280;6919;52.344;14.518;2022-09-09T11:50:34;100393.31;;;24.11;100.00
13695;BME280;6919;52.344;14.518;2022-09-09T11:53:18;100382.91;;;24.46;100.00
13695;BME280;6919;52.344;14.518;2022-09-09T11:56:29;100389.50;;;24.78;100.00
13695;BME280;6919;52.344;14.518;2022-09-09T11:59:02;100385.19;;;25.03;100.00
13695;BME280;6919;52.344;14.518;2022-09-09T12:01:36;100373.47;;;25.08;98.61
13695;BME280;6919;52.344;14.518;2022-09-09T12:04:27;100387.66;;;24.67;96.00
13695;BME280;6919;52.344;14.518;2022-09-09T12:07:00;100384.47;;;24.58;97.72
13695;BME280;6919;52.344;14.518;2022-09-09T12:09:47;100385.03;;;24.72;97.71
13695;BME280;6919;52.344;14.518;2022-09-09T12:12:26;100380.16;;;24.46;96.96
13695;BME280;6919;52.344;14.518;2022-09-09T12:15:00;100375.34;;;23.75;100.00
13695;BME280;6919;52.344;14.518;2022-09-09T12:17:31;100376.09;;;23.20;100.00
13695;BME280;6919;52.344;14.518;2022-09-09T12:20:13;100369.44;;;23.95;100.00
13695;BME280;6919;52.344;14.518;2022-09-09T12:23:07;100360.91;;;24.74;99.15
13695;BME280;6919;52.344;14.518;2022-09-09T12:25:56;100361.75;;;25.34;97.91
13695;BME280;6919;52.344;14.518;2022-09-09T12:28:41;100370.84;;;24.96;97.31
13695;BME280;6919;52.344;14.518;2022-09-09T12:31:17;100360.06;;;24.24;100.00
13695;BME280;6919;52.344;14.518;2022-09-09T12:33:49;100366.22;;;23.98;100.00
13695;BME280;6919;52.344;14.518;2022-09-09T12:36:21;100373.59;;;23.86;100.00
13695;BME280;6919;52.344;14.518;2022-09-09T12:38:52;100357.69;;;23.83;100.00
13695;BME280;6919;52.344;14.518;2022-09-09T12:41:23;100358.47;;;23.67;100.00
13695;BME280;6919;52.344;14.518;2022-09-09T12:44:05;100365.56;;;23.79;100.00
13695;BME280;6919;52.344;14.518;2022-09-09T12:46:39;100357.75;;;24.49;100.00
13695;BME280;6919;52.344;14.518;2022-09-09T12:49:29;100365.44;;;25.23;100.00
13695;BME280;6919;52.344;14.518;2022-09-09T12:52:03;100361.72;;;25.77;93.82
13695;BME280;6919;52.344;14.518;2022-09-09T12:54:36;100365.97;;;25.90;84.61
13695;BME280;6919;52.344;14.518;2022-09-09T12:57:09;100356.31;;;26.14;83.39
13695;BME280;6919;52.344;14.518;2022-09-09T12:59:43;100362.34;;;25.84;77.59
13695;BME280;6919;52.344;14.518;2022-09-09T13:02:21;100361.91;;;25.71;81.13
13695;BME280;6919;52.344;14.518;2022-09-09T13:04:51;100357.09;;;25.83;89.93
13695;BME280;6919;52.344;14.518;2022-09-09T13:07:21;100356.16;;;27.03;82.82
13695;BME280;6919;52.344;14.518;2022-09-09T13:09:49;100353.16;;;27.61;74.31
13695;BME280;6919;52.344;14.518;2022-09-09T13:12:21;100349.94;;;28.20;65.81
13695;BME280;6919;52.344;14.518;2022-09-09T13:14:55;100347.16;;;27.89;65.03
13695;BME280;6919;52.344;14.518;2022-09-09T13:17:26;100343.31;;;28.66;56.87
13695;BME280;6919;52.344;14.518;2022-09-09T13:19:56;100335.63;;;28.48;57.67
13695;BME280;6919;52.344;14.518;2022-09-09T13:22:31;100339.28;;;27.41;63.11
13695;BME280;6919;52.344;14.518;2022-09-09T13:25:13;100333.41;;;28.15;61.63
13695;BME280;6919;52.344;14.518;2022-09-09T13:27:58;100327.88;;;28.09;60.05
13695;BME280;6919;52.344;14.518;2022-09-09T13:30:31;100326.44;;;28.87;55.63
13695;BME280;6919;52.344;14.518;2022-09-09T13:33:18;100332.16;;;29.79;54.81